createdAt,value
2018-07-07T00:01:13.438Z,14.60
2018-07-07T00:03:42.055Z,14.50
2018-07-07T00:06:10.646Z,14.50
2018-07-07T00:08:39.976Z,14.30
2018-07-07T00:11:08.744Z,14.30
2018-07-07T00:13:37.431Z,14.30
2018-07-07T00:16:06.065Z,14.30
2018-07-07T00:18:34.618Z,14.30
2018-07-07T00:21:03.196Z,14.20
2018-07-07T00:23:31.724Z,14.20
2018-07-07T00:26:02.614Z,14.10
2018-07-07T00:28:31.635Z,14.10
2018-07-07T00:31:00.261Z,14.00
2018-07-07T00:33:28.819Z,13.90
2018-07-07T00:35:57.364Z,13.90
2018-07-07T00:38:25.918Z,13.80
2018-07-07T00:40:54.600Z,13.70
2018-07-07T00:43:23.356Z,13.70
2018-07-07T00:45:51.883Z,13.70
2018-07-07T00:48:20.480Z,13.60
2018-07-07T00:50:49.094Z,13.70
2018-07-07T00:53:17.661Z,13.60
2018-07-07T00:55:46.203Z,13.50
2018-07-07T00:58:14.812Z,13.50
2018-07-07T01:00:49.498Z,13.50
2018-07-07T01:03:18.167Z,13.40
2018-07-07T01:05:47.656Z,13.40
2018-07-07T01:08:16.879Z,13.40
2018-07-07T01:10:45.492Z,13.30
2018-07-07T01:13:14.646Z,13.30
2018-07-07T01:15:43.579Z,13.20
2018-07-07T01:18:12.292Z,13.20
2018-07-07T01:20:40.829Z,13.20
2018-07-07T01:23:09.440Z,13.20
2018-07-07T01:25:37.969Z,13.10
2018-07-07T01:28:06.805Z,13.10
2018-07-07T01:30:35.335Z,13.10
2018-07-07T01:33:03.925Z,13.00
2018-07-07T01:35:32.563Z,13.00
2018-07-07T01:38:01.110Z,12.90
2018-07-07T01:40:29.656Z,12.90
2018-07-07T01:42:58.644Z,12.90
2018-07-07T01:47:55.466Z,12.80
2018-07-07T01:52:52.261Z,12.70
2018-07-07T01:55:20.968Z,12.60
2018-07-07T01:57:49.521Z,12.60
2018-07-07T02:00:18.070Z,12.60
2018-07-07T02:02:46.633Z,12.50
2018-07-07T02:05:15.192Z,12.50
2018-07-07T02:07:43.767Z,12.40
2018-07-07T02:10:12.340Z,12.30
2018-07-07T02:12:40.952Z,12.20
2018-07-07T02:15:09.913Z,12.20
2018-07-07T02:17:38.473Z,12.10
2018-07-07T02:20:07.047Z,12.10
2018-07-07T02:22:35.661Z,12.00
2018-07-07T02:25:04.273Z,12.00
2018-07-07T02:27:32.876Z,11.90
2018-07-07T02:30:01.438Z,11.90
2018-07-07T02:32:29.968Z,11.80
2018-07-07T02:34:59.910Z,11.90
2018-07-07T02:37:28.416Z,11.80
2018-07-07T02:39:56.983Z,11.80
2018-07-07T02:42:26.348Z,11.80
2018-07-07T02:44:54.856Z,11.80
2018-07-07T02:47:23.460Z,11.70
2018-07-07T02:49:51.995Z,11.70
2018-07-07T02:52:21.397Z,11.70
2018-07-07T02:54:49.965Z,11.60
2018-07-07T02:57:19.126Z,11.60
2018-07-07T03:02:15.990Z,11.50
2018-07-07T03:07:12.824Z,11.50
2018-07-07T03:09:41.358Z,11.60
2018-07-07T03:12:09.963Z,11.50
2018-07-07T03:14:38.524Z,11.50
2018-07-07T03:17:07.082Z,11.50
2018-07-07T03:19:35.640Z,11.50
2018-07-07T03:22:04.228Z,11.50
2018-07-07T03:24:32.737Z,11.50
2018-07-07T03:27:01.286Z,11.60
2018-07-07T03:29:29.824Z,11.60
2018-07-07T03:31:59.581Z,11.60
2018-07-07T03:34:28.676Z,11.60
2018-07-07T03:36:58.139Z,11.60
2018-07-07T03:39:27.221Z,11.70
2018-07-07T03:41:55.781Z,11.70
2018-07-07T03:44:24.468Z,11.70
2018-07-07T03:46:55.143Z,11.70
2018-07-07T03:49:23.733Z,11.70
2018-07-07T03:51:52.224Z,11.80
2018-07-07T03:54:21.785Z,11.80
2018-07-07T03:56:50.327Z,11.80
2018-07-07T03:59:18.998Z,11.80
2018-07-07T04:01:47.614Z,11.90
2018-07-07T04:04:16.085Z,11.90
2018-07-07T04:06:44.703Z,11.90
2018-07-07T04:09:13.262Z,12.00
2018-07-07T04:11:41.824Z,12.10
2018-07-07T04:14:10.394Z,12.10
2018-07-07T04:16:38.963Z,12.10
2018-07-07T04:19:07.552Z,12.10
2018-07-07T04:21:36.099Z,12.10
2018-07-07T04:24:04.711Z,12.20
2018-07-07T04:26:33.398Z,12.20
2018-07-07T04:29:02.125Z,12.20
2018-07-07T04:31:30.622Z,12.20
2018-07-07T04:33:59.149Z,12.30
2018-07-07T04:36:27.728Z,12.40
2018-07-07T04:38:56.270Z,12.50
2018-07-07T04:41:24.845Z,12.50
2018-07-07T04:43:53.339Z,12.50
2018-07-07T04:46:21.960Z,12.60
2018-07-07T04:48:50.490Z,12.60
2018-07-07T04:51:19.004Z,12.60
2018-07-07T04:53:47.629Z,12.60
2018-07-07T04:56:16.160Z,12.80
2018-07-07T04:58:44.837Z,12.80
2018-07-07T05:01:13.437Z,13.00
2018-07-07T05:03:41.945Z,13.00
2018-07-07T05:06:10.976Z,13.10
2018-07-07T05:08:39.664Z,13.10
2018-07-07T05:11:08.366Z,13.20
2018-07-07T05:13:37.170Z,13.40
2018-07-07T05:16:05.835Z,13.60
2018-07-07T05:18:34.371Z,13.70
2018-07-07T05:21:02.918Z,14.00
2018-07-07T05:23:31.475Z,14.00
2018-07-07T05:26:00.687Z,14.00
2018-07-07T05:28:29.268Z,13.90
2018-07-07T05:30:57.800Z,13.80
2018-07-07T05:33:27.071Z,13.70
2018-07-07T05:35:55.835Z,13.70
2018-07-07T05:38:24.327Z,13.80
2018-07-07T05:40:53.737Z,13.80
2018-07-07T05:45:50.899Z,13.90
2018-07-07T05:48:19.481Z,13.90
2018-07-07T05:50:48.033Z,14.00
2018-07-07T05:53:16.654Z,14.00
2018-07-07T05:55:45.713Z,14.10
2018-07-07T05:58:14.324Z,14.10
2018-07-07T06:00:42.928Z,14.30
2018-07-07T06:03:11.764Z,14.20
2018-07-07T06:05:40.444Z,14.20
2018-07-07T06:08:08.964Z,14.20
2018-07-07T06:10:37.559Z,14.20
2018-07-07T06:13:06.456Z,14.30
2018-07-07T06:15:35.079Z,14.40
2018-07-07T06:18:03.967Z,14.50
2018-07-07T06:20:32.638Z,14.50
2018-07-07T06:23:01.267Z,14.60
2018-07-07T06:25:30.633Z,14.60
2018-07-07T06:28:00.844Z,14.70
2018-07-07T06:30:29.399Z,14.90
2018-07-07T06:32:58.256Z,14.90
2018-07-07T06:35:27.286Z,14.90
2018-07-07T06:37:55.867Z,15.00
2018-07-07T06:40:24.591Z,15.10
2018-07-07T06:42:53.542Z,15.30
2018-07-07T06:45:22.132Z,15.30
2018-07-07T06:47:50.765Z,15.40
2018-07-07T06:50:19.375Z,15.40
2018-07-07T06:52:47.912Z,15.30
2018-07-07T06:55:16.470Z,15.50
2018-07-07T06:57:45.040Z,15.70
2018-07-07T07:00:13.635Z,15.90
2018-07-07T07:02:42.225Z,15.90
2018-07-07T07:05:10.735Z,16.00
2018-07-07T07:07:39.288Z,16.10
2018-07-07T07:10:07.817Z,16.00
2018-07-07T07:12:36.371Z,16.00
2018-07-07T07:15:04.905Z,16.30
2018-07-07T07:17:33.404Z,16.50
2018-07-07T07:20:02.444Z,16.70
2018-07-07T07:22:31.082Z,16.90
2018-07-07T07:24:59.645Z,17.10
2018-07-07T07:27:28.573Z,17.40
2018-07-07T07:29:57.399Z,17.60
2018-07-07T07:32:26.111Z,17.90
2018-07-07T07:34:54.712Z,18.20
2018-07-07T07:37:23.290Z,18.30
2018-07-07T07:39:51.802Z,18.20
2018-07-07T07:42:20.357Z,18.60
2018-07-07T07:44:49.033Z,19.00
2018-07-07T07:47:17.493Z,19.70
2018-07-07T07:49:46.109Z,19.40
2018-07-07T07:52:14.871Z,18.90
2018-07-07T07:54:43.454Z,19.80
2018-07-07T07:57:12.770Z,19.70
2018-07-07T07:59:41.482Z,20.20
2018-07-07T08:02:10.176Z,20.20
2018-07-07T08:04:38.742Z,20.40
2018-07-07T08:07:07.427Z,20.80
2018-07-07T08:09:36.074Z,20.30
2018-07-07T08:12:04.747Z,21.00
2018-07-07T08:14:33.291Z,21.50
2018-07-07T08:17:01.918Z,21.50
2018-07-07T08:19:30.511Z,22.30
2018-07-07T08:21:59.272Z,22.30
2018-07-07T08:24:27.880Z,22.40
2018-07-07T08:26:56.491Z,23.00
2018-07-07T08:29:25.157Z,22.50
2018-07-07T08:31:53.703Z,22.70
2018-07-07T08:34:22.299Z,23.10
2018-07-07T08:36:50.922Z,23.00
2018-07-07T08:39:19.465Z,22.80
2018-07-07T08:41:48.030Z,22.90
2018-07-07T08:44:16.557Z,22.90
2018-07-07T08:46:45.239Z,22.90
2018-07-07T08:49:13.857Z,22.30
2018-07-07T08:51:42.419Z,22.40
2018-07-07T08:56:39.268Z,22.50
2018-07-07T08:59:07.833Z,22.60
2018-07-07T09:01:36.624Z,22.50
2018-07-07T09:04:05.211Z,22.70
2018-07-07T09:06:33.720Z,23.20
2018-07-07T09:09:02.215Z,23.20
2018-07-07T09:11:30.852Z,23.20
2018-07-07T09:13:59.436Z,23.10
2018-07-07T09:16:27.949Z,23.20
2018-07-07T09:18:56.484Z,23.50
2018-07-07T09:21:25.415Z,23.70
2018-07-07T09:23:53.938Z,23.00
2018-07-07T09:26:22.581Z,22.90
2018-07-07T09:28:51.169Z,22.60
2018-07-07T09:31:19.731Z,22.40
2018-07-07T09:33:48.315Z,22.70
2018-07-07T09:36:17.179Z,22.60
2018-07-07T09:38:45.773Z,22.80
2018-07-07T09:41:14.284Z,23.00
2018-07-07T09:43:42.880Z,23.80
2018-07-07T09:46:11.356Z,24.50
2018-07-07T09:48:40.019Z,24.80
2018-07-07T09:51:08.651Z,24.50
2018-07-07T09:53:37.598Z,25.00
2018-07-07T09:56:06.128Z,25.40
2018-07-07T09:58:34.700Z,25.70
2018-07-07T10:01:03.321Z,25.70
2018-07-07T10:03:31.845Z,26.00
2018-07-07T10:06:00.826Z,26.70
2018-07-07T10:08:29.321Z,26.70
2018-07-07T10:13:26.146Z,26.00
2018-07-07T10:15:54.880Z,25.90
2018-07-07T10:18:23.395Z,26.20
2018-07-07T10:20:51.969Z,26.50
2018-07-07T10:23:20.485Z,26.40
2018-07-07T10:25:48.993Z,26.80
2018-07-07T10:28:17.769Z,27.30
2018-07-07T10:30:46.310Z,27.10
2018-07-07T10:33:14.823Z,27.70
2018-07-07T10:35:43.427Z,27.60
2018-07-07T10:38:11.941Z,26.70
2018-07-07T10:40:40.773Z,27.10
2018-07-07T10:43:09.305Z,27.50
2018-07-07T10:45:37.881Z,27.30
2018-07-07T10:48:06.360Z,27.30
2018-07-07T10:50:34.926Z,27.40
2018-07-07T10:53:03.525Z,27.00
2018-07-07T10:55:32.096Z,27.90
2018-07-07T10:58:00.703Z,27.60
2018-07-07T11:00:29.507Z,26.90
2018-07-07T11:02:58.066Z,27.70
2018-07-07T11:05:26.710Z,28.60
2018-07-07T11:07:55.227Z,28.90
2018-07-07T11:10:23.708Z,28.80
2018-07-07T11:12:52.200Z,28.50
2018-07-07T11:15:20.767Z,29.00
2018-07-07T11:17:49.255Z,28.90
2018-07-07T11:20:17.777Z,29.10
2018-07-07T11:22:46.390Z,29.30
2018-07-07T11:25:14.956Z,29.10
2018-07-07T11:27:43.887Z,29.30
2018-07-07T11:30:12.478Z,29.50
2018-07-07T11:32:41.003Z,29.60
2018-07-07T11:35:09.764Z,29.50
2018-07-07T11:37:38.888Z,28.60
2018-07-07T11:40:07.572Z,28.90
2018-07-07T11:42:36.162Z,29.90
2018-07-07T11:45:05.029Z,30.10
2018-07-07T11:47:33.595Z,29.20
2018-07-07T11:50:02.168Z,29.10
2018-07-07T11:52:30.752Z,29.00
2018-07-07T11:54:59.249Z,29.20
2018-07-07T11:57:28.087Z,30.00
2018-07-07T11:59:56.687Z,30.00
2018-07-07T12:02:25.178Z,30.00
2018-07-07T12:04:53.740Z,29.90
2018-07-07T12:07:22.215Z,30.20
2018-07-07T12:09:50.712Z,29.50
2018-07-07T12:12:19.292Z,29.00
2018-07-07T12:14:47.907Z,29.20
2018-07-07T12:17:16.482Z,29.80
2018-07-07T12:19:45.009Z,30.20
2018-07-07T12:22:13.514Z,29.20
2018-07-07T12:24:42.073Z,29.30
2018-07-07T12:27:10.683Z,30.10
2018-07-07T12:29:39.234Z,30.80
2018-07-07T12:32:07.781Z,29.80
2018-07-07T12:34:36.410Z,30.60
2018-07-07T12:37:05.002Z,30.90
2018-07-07T12:39:33.499Z,30.50
2018-07-07T12:42:01.995Z,30.30
2018-07-07T12:44:30.518Z,30.70
2018-07-07T12:46:59.143Z,30.80
2018-07-07T12:49:27.962Z,30.30
2018-07-07T12:51:56.524Z,29.90
2018-07-07T12:54:25.068Z,30.50
2018-07-07T12:56:53.678Z,30.90
2018-07-07T12:59:22.191Z,30.40
2018-07-07T13:01:50.779Z,30.60
2018-07-07T13:04:19.569Z,30.80
2018-07-07T13:06:48.011Z,30.50
2018-07-07T13:09:16.495Z,30.60
2018-07-07T13:11:45.075Z,30.60
2018-07-07T13:14:13.546Z,30.80
2018-07-07T13:16:42.111Z,31.30
2018-07-07T13:19:10.609Z,31.40
2018-07-07T13:21:39.704Z,30.70
2018-07-07T13:24:08.335Z,31.10
2018-07-07T13:26:36.839Z,31.10
2018-07-07T13:29:05.443Z,31.60
2018-07-07T13:31:34.064Z,30.90
2018-07-07T13:34:02.690Z,31.40
2018-07-07T13:36:31.240Z,31.20
2018-07-07T13:41:28.030Z,31.20
2018-07-07T13:43:56.587Z,30.80
2018-07-07T13:46:25.140Z,30.70
2018-07-07T13:48:53.751Z,30.30
2018-07-07T13:51:22.285Z,30.10
2018-07-07T13:53:50.864Z,30.70
2018-07-07T13:58:47.664Z,31.60
2018-07-07T14:01:16.204Z,31.70
2018-07-07T14:03:45.573Z,31.80
2018-07-07T14:06:14.125Z,31.00
2018-07-07T14:08:43.031Z,31.50
2018-07-07T14:11:11.578Z,31.60
2018-07-07T14:13:40.073Z,31.20
2018-07-07T14:16:08.632Z,31.30
2018-07-07T14:18:37.120Z,31.20
2018-07-07T14:21:07.136Z,31.20
2018-07-07T14:23:35.742Z,30.30
2018-07-07T14:28:32.463Z,30.60
2018-07-07T14:31:00.981Z,30.00
2018-07-07T14:33:29.783Z,29.80
2018-07-07T14:35:58.280Z,31.00
2018-07-07T14:38:32.830Z,31.80
2018-07-07T14:41:21.358Z,31.70
2018-07-07T14:43:56.001Z,31.70
2018-07-07T14:46:25.109Z,31.10
2018-07-07T14:48:53.730Z,30.90
2018-07-07T14:51:22.525Z,31.20
2018-07-07T14:53:51.124Z,31.40
2018-07-07T14:56:20.806Z,31.50
2018-07-07T14:58:49.834Z,29.30
2018-07-07T15:01:18.395Z,29.60
2018-07-07T15:03:46.923Z,28.80
2018-07-07T15:06:15.424Z,29.10
2018-07-07T15:08:44.315Z,29.50
2018-07-07T15:11:12.905Z,28.90
2018-07-07T15:13:41.472Z,29.60
2018-07-07T15:16:10.087Z,29.80
2018-07-07T15:18:38.574Z,30.00
2018-07-07T15:21:07.174Z,29.60
2018-07-07T15:23:35.666Z,29.30
2018-07-07T15:26:04.142Z,29.70
2018-07-07T15:28:32.733Z,29.50
2018-07-07T15:31:01.721Z,30.00
2018-07-07T15:35:58.549Z,29.30
2018-07-07T15:38:27.033Z,29.70
2018-07-07T15:40:55.679Z,29.70
2018-07-07T15:43:24.217Z,29.30
2018-07-07T15:45:52.851Z,29.70
2018-07-07T15:48:21.471Z,29.50
2018-07-07T15:50:49.978Z,29.80
2018-07-07T15:53:18.669Z,29.30
2018-07-07T15:55:47.216Z,29.00
2018-07-07T15:58:15.690Z,29.40
2018-07-07T16:00:44.217Z,29.10
2018-07-07T16:03:12.703Z,28.90
2018-07-07T16:05:41.342Z,28.80
2018-07-07T16:08:09.933Z,28.50
2018-07-07T16:10:38.469Z,28.40
2018-07-07T16:13:06.971Z,28.30
2018-07-07T16:15:35.476Z,27.90
2018-07-07T16:18:04.025Z,27.70
2018-07-07T16:20:32.607Z,27.50
2018-07-07T16:23:01.121Z,27.40
2018-07-07T16:25:29.686Z,27.20
2018-07-07T16:27:58.281Z,27.20
2018-07-07T16:30:27.097Z,27.10
2018-07-07T16:32:55.661Z,27.10
2018-07-07T16:35:24.177Z,26.60
2018-07-07T16:37:52.724Z,26.60
2018-07-07T16:40:21.311Z,26.60
2018-07-07T16:42:49.896Z,26.30
2018-07-07T16:45:18.516Z,26.40
2018-07-07T16:47:47.058Z,26.50
2018-07-07T16:50:15.592Z,26.20
2018-07-07T16:52:44.352Z,26.00
2018-07-07T16:55:13.144Z,25.90
2018-07-07T16:57:42.761Z,25.80
2018-07-07T17:00:11.353Z,25.50
2018-07-07T17:02:39.996Z,25.40
2018-07-07T17:05:08.576Z,25.40
2018-07-07T17:07:37.831Z,25.20
2018-07-07T17:10:06.521Z,25.30
2018-07-07T17:12:35.216Z,25.10
2018-07-07T17:15:03.751Z,25.00
2018-07-07T17:20:01.151Z,25.00
2018-07-07T17:22:29.736Z,25.00
2018-07-07T17:24:58.679Z,25.00
2018-07-07T17:27:27.268Z,24.80
2018-07-07T17:29:56.249Z,24.70
2018-07-07T17:32:24.773Z,24.70
2018-07-07T17:34:53.525Z,24.70
2018-07-07T17:37:22.494Z,24.60
2018-07-07T17:39:51.078Z,24.50
2018-07-07T17:42:19.723Z,24.40
2018-07-07T17:44:49.431Z,24.40
2018-07-07T17:47:18.102Z,24.40
2018-07-07T17:49:46.660Z,24.40
2018-07-07T17:52:15.439Z,24.20
2018-07-07T17:54:44.069Z,24.00
2018-07-07T17:57:12.658Z,24.10
2018-07-07T17:59:41.225Z,24.10
2018-07-07T18:02:10.023Z,24.00
2018-07-07T18:04:38.672Z,23.90
2018-07-07T18:07:07.231Z,23.80
2018-07-07T18:09:35.829Z,23.80
2018-07-07T18:12:04.448Z,23.80
2018-07-07T18:14:32.982Z,23.70
2018-07-07T18:17:01.585Z,23.60
2018-07-07T18:19:30.280Z,23.60
2018-07-07T18:21:58.892Z,23.50
2018-07-07T18:24:34.515Z,23.50
2018-07-07T18:27:03.187Z,23.40
2018-07-07T18:29:32.453Z,23.40
2018-07-07T18:34:29.278Z,23.40
2018-07-07T18:36:57.832Z,23.30
2018-07-07T18:39:26.404Z,23.10
2018-07-07T18:41:55.053Z,23.10
2018-07-07T18:44:24.456Z,23.00
2018-07-07T18:46:53.004Z,22.90
2018-07-07T18:49:21.765Z,22.90
2018-07-07T18:51:52.473Z,22.80
2018-07-07T18:54:20.971Z,22.80
2018-07-07T18:56:49.689Z,22.70
2018-07-07T18:59:18.288Z,22.70
2018-07-07T19:01:46.944Z,22.50
2018-07-07T19:04:16.902Z,22.50
2018-07-07T19:06:47.115Z,22.40
2018-07-07T19:09:17.434Z,22.40
2018-07-07T19:11:46.117Z,22.30
2018-07-07T19:14:15.004Z,22.20
2018-07-07T19:16:46.891Z,22.20
2018-07-07T19:19:16.176Z,22.10
2018-07-07T19:21:50.970Z,22.00
2018-07-07T19:24:25.081Z,22.00
2018-07-07T19:26:55.180Z,21.80
2018-07-07T19:29:23.957Z,21.60
2018-07-07T19:31:57.821Z,21.60
2018-07-07T19:34:31.676Z,21.60
2018-07-07T19:39:34.223Z,21.40
2018-07-07T19:42:02.910Z,21.30
2018-07-07T19:44:31.774Z,21.20
2018-07-07T19:47:00.377Z,21.00
2018-07-07T19:49:29.261Z,21.00
2018-07-07T19:51:58.011Z,20.90
2018-07-07T19:54:26.609Z,20.90
2018-07-07T19:56:55.309Z,20.80
2018-07-07T19:59:23.887Z,20.70
2018-07-07T20:01:52.753Z,20.70
2018-07-07T20:04:21.393Z,20.60
2018-07-07T20:06:49.998Z,20.50
2018-07-07T20:09:18.913Z,20.50
2018-07-07T20:11:47.783Z,20.40
2018-07-07T20:14:22.042Z,20.40
2018-07-07T20:17:15.585Z,20.30
2018-07-07T20:21:03.928Z,20.30
2018-07-07T20:23:32.489Z,20.20
2018-07-07T20:26:01.131Z,20.10
2018-07-07T20:28:35.555Z,20.10
2018-07-07T20:31:04.513Z,20.00
2018-07-07T20:33:33.435Z,20.00
2018-07-07T20:36:02.136Z,19.90
2018-07-07T20:38:31.392Z,19.80
2018-07-07T20:41:00.126Z,19.80
2018-07-07T20:43:29.281Z,19.70
2018-07-07T20:45:57.864Z,19.70
2018-07-07T20:48:26.642Z,19.60
2018-07-07T20:50:55.635Z,19.50
2018-07-07T20:53:24.259Z,19.40
2018-07-07T20:55:53.136Z,19.40
2018-07-07T20:58:22.207Z,19.30
2018-07-07T21:00:50.772Z,19.30
2018-07-07T21:03:19.370Z,19.30
2018-07-07T21:05:48.602Z,19.10
2018-07-07T21:08:17.620Z,19.10
2018-07-07T21:10:46.207Z,18.90
2018-07-07T21:13:14.893Z,18.90
2018-07-07T21:15:43.451Z,18.80
2018-07-07T21:18:12.074Z,18.80
2018-07-07T21:20:40.723Z,18.70
2018-07-07T21:23:09.393Z,18.60
2018-07-07T21:25:37.967Z,18.60
2018-07-07T21:28:06.927Z,18.40
2018-07-07T21:30:35.491Z,18.40
2018-07-07T21:33:04.320Z,18.40
2018-07-07T21:35:33.387Z,18.30
2018-07-07T21:38:01.962Z,18.30
2018-07-07T21:40:30.915Z,18.20
2018-07-07T21:42:59.705Z,18.10
2018-07-07T21:45:28.885Z,18.00
2018-07-07T21:47:57.526Z,18.00
2018-07-07T21:50:26.143Z,17.90
2018-07-07T21:52:55.514Z,17.90
2018-07-07T21:55:24.189Z,17.80
2018-07-07T21:57:57.969Z,17.70
2018-07-07T22:00:32.402Z,17.60
2018-07-07T22:03:06.303Z,17.60
2018-07-07T22:05:39.114Z,17.50
2018-07-07T22:08:13.201Z,17.50
2018-07-07T22:10:41.777Z,17.50
2018-07-07T22:13:10.773Z,17.40
2018-07-07T22:15:39.370Z,17.40
2018-07-07T22:18:08.509Z,17.30
2018-07-07T22:20:37.824Z,17.30
2018-07-07T22:23:06.732Z,17.30
2018-07-07T22:25:35.567Z,17.20
2018-07-07T22:28:04.182Z,17.20
2018-07-07T22:30:33.108Z,17.10
2018-07-07T22:33:07.152Z,17.10
2018-07-07T22:35:41.137Z,17.00
2018-07-07T22:39:15.969Z,17.00
2018-07-07T22:42:02.090Z,17.00
2018-07-07T22:44:31.073Z,17.00
2018-07-07T22:46:59.832Z,17.00
2018-07-07T22:49:29.441Z,16.90
2018-07-07T22:51:58.028Z,16.90
2018-07-07T22:54:26.579Z,16.90
2018-07-07T22:56:55.119Z,16.90
2018-07-07T22:59:23.796Z,16.80
2018-07-07T23:01:52.328Z,16.70
2018-07-07T23:04:20.936Z,16.60
2018-07-07T23:06:49.936Z,16.50
2018-07-07T23:09:19.205Z,16.70
2018-07-07T23:11:47.891Z,16.70
2018-07-07T23:16:44.730Z,16.70
2018-07-07T23:19:13.332Z,16.60
2018-07-07T23:21:41.966Z,16.60
2018-07-07T23:24:10.552Z,16.50
2018-07-07T23:26:39.933Z,16.50
2018-07-07T23:29:08.919Z,16.50
2018-07-07T23:31:37.583Z,16.40
2018-07-07T23:34:06.404Z,16.30
2018-07-07T23:36:34.973Z,16.30
2018-07-07T23:39:03.910Z,16.30
2018-07-07T23:41:32.531Z,16.30
2018-07-07T23:44:01.803Z,16.30
2018-07-07T23:46:30.366Z,16.30
2018-07-07T23:48:58.997Z,16.30
2018-07-07T23:51:27.735Z,16.20
2018-07-07T23:53:56.322Z,16.20
2018-07-07T23:56:24.971Z,16.20
2018-07-07T23:58:53.667Z,16.10
